sensor_id;sensor_type;location;lat;lon;timestamp;P1;durP1;ratioP1;P2;durP2;ratioP2
12567;SDS011;6349;50.904;6.136;2022-09-09T00:00:23;1.30;;;0.65;;
12567;SDS011;6349;50.904;6.136;2022-09-09T00:02:27;1.08;;;0.57;;
12567;SDS011;6349;50.904;6.136;2022-09-09T00:04:29;0.73;;;0.40;;
12567;SDS011;6349;50.904;6.136;2022-09-09T00:09:13;0.95;;;0.45;;
12567;SDS011;6349;50.904;6.136;2022-09-09T00:11:17;0.63;;;0.40;;
12567;SDS011;6349;50.904;6.136;2022-09-09T00:13:29;0.82;;;0.60;;
12567;SDS011;6349;50.904;6.136;2022-09-09T00:20:33;1.15;;;0.65;;
12567;SDS011;6349;50.904;6.136;2022-09-09T00:22:45;0.95;;;0.60;;
12567;SDS011;6349;50.904;6.136;2022-09-09T00:24:54;1.17;;;0.50;;
12567;SDS011;6349;50.904;6.136;2022-09-09T00:26:59;0.63;;;0.60;;
12567;SDS011;6349;50.904;6.136;2022-09-09T00:31:29;0.35;;;0.35;;
12567;SDS011;6349;50.904;6.136;2022-09-09T00:33:30;3.70;;;0.63;;
12567;SDS011;6349;50.904;6.136;2022-09-09T00:35:33;1.23;;;0.60;;
12567;SDS011;6349;50.904;6.136;2022-09-09T00:37:36;2.58;;;0.80;;
12567;SDS011;6349;50.904;6.136;2022-09-09T00:39:42;0.90;;;0.68;;
12567;SDS011;6349;50.904;6.136;2022-09-09T00:41:51;0.80;;;0.65;;
12567;SDS011;6349;50.904;6.136;2022-09-09T00:46:41;1.05;;;0.60;;
12567;SDS011;6349;50.904;6.136;2022-09-09T00:49:29;0.75;;;0.50;;
12567;SDS011;6349;50.904;6.136;2022-09-09T00:51:27;0.88;;;0.70;;
12567;SDS011;6349;50.904;6.136;2022-09-09T00:56:33;1.35;;;0.65;;
12567;SDS011;6349;50.904;6.136;2022-09-09T00:58:43;2.40;;;0.70;;
12567;SDS011;6349;50.904;6.136;2022-09-09T01:00:53;1.35;;;0.60;;
12567;SDS011;6349;50.904;6.136;2022-09-09T01:05:20;0.98;;;0.60;;
12567;SDS011;6349;50.904;6.136;2022-09-09T01:07:43;0.57;;;0.52;;
12567;SDS011;6349;50.904;6.136;2022-09-09T01:09:58;1.23;;;0.68;;
12567;SDS011;6349;50.904;6.136;2022-09-09T01:12:15;1.75;;;0.68;;
12567;SDS011;6349;50.904;6.136;2022-09-09T01:16:47;2.38;;;1.00;;
12567;SDS011;6349;50.904;6.136;2022-09-09T01:18:49;1.02;;;0.60;;
12567;SDS011;6349;50.904;6.136;2022-09-09T01:20:55;1.15;;;0.90;;
12567;SDS011;6349;50.904;6.136;2022-09-09T01:26:29;1.65;;;0.90;;
12567;SDS011;6349;50.904;6.136;2022-09-09T01:28:16;1.40;;;0.90;;
12567;SDS011;6349;50.904;6.136;2022-09-09T01:30:21;1.50;;;0.90;;
12567;SDS011;6349;50.904;6.136;2022-09-09T01:32:55;1.75;;;0.90;;
12567;SDS011;6349;50.904;6.136;2022-09-09T01:34:48;3.47;;;0.80;;
12567;SDS011;6349;50.904;6.136;2022-09-09T01:36:56;1.13;;;0.90;;
12567;SDS011;6349;50.904;6.136;2022-09-09T01:39:06;3.88;;;1.10;;
12567;SDS011;6349;50.904;6.136;2022-09-09T01:41:07;2.38;;;1.00;;
12567;SDS011;6349;50.904;6.136;2022-09-09T01:43:07;1.50;;;1.00;;
12567;SDS011;6349;50.904;6.136;2022-09-09T01:45:09;2.30;;;0.95;;
12567;SDS011;6349;50.904;6.136;2022-09-09T01:47:10;2.10;;;1.00;;
12567;SDS011;6349;50.904;6.136;2022-09-09T01:49:11;1.52;;;0.80;;
12567;SDS011;6349;50.904;6.136;2022-09-09T01:51:11;1.90;;;0.80;;
12567;SDS011;6349;50.904;6.136;2022-09-09T01:53:12;3.35;;;1.17;;
12567;SDS011;6349;50.904;6.136;2022-09-09T01:55:16;3.10;;;1.05;;
12567;SDS011;6349;50.904;6.136;2022-09-09T01:57:23;2.22;;;1.00;;
12567;SDS011;6349;50.904;6.136;2022-09-09T01:59:31;2.17;;;0.90;;
12567;SDS011;6349;50.904;6.136;2022-09-09T02:02:01;0.98;;;0.80;;
12567;SDS011;6349;50.904;6.136;2022-09-09T02:06:39;1.45;;;0.70;;
12567;SDS011;6349;50.904;6.136;2022-09-09T02:08:42;2.10;;;0.98;;
12567;SDS011;6349;50.904;6.136;2022-09-09T02:10:55;1.10;;;0.90;;
12567;SDS011;6349;50.904;6.136;2022-09-09T02:13:04;2.17;;;1.00;;
12567;SDS011;6349;50.904;6.136;2022-09-09T02:15:13;2.72;;;0.93;;
12567;SDS011;6349;50.904;6.136;2022-09-09T02:17:24;4.15;;;1.45;;
12567;SDS011;6349;50.904;6.136;2022-09-09T02:19:30;2.15;;;0.90;;
12567;SDS011;6349;50.904;6.136;2022-09-09T02:21:34;2.42;;;1.20;;
12567;SDS011;6349;50.904;6.136;2022-09-09T02:23:36;1.67;;;0.90;;
12567;SDS011;6349;50.904;6.136;2022-09-09T02:25:39;1.30;;;1.00;;
12567;SDS011;6349;50.904;6.136;2022-09-09T02:27:42;3.13;;;0.90;;
12567;SDS011;6349;50.904;6.136;2022-09-09T02:29:45;2.55;;;1.10;;
12567;SDS011;6349;50.904;6.136;2022-09-09T02:31:47;4.35;;;1.33;;
12567;SDS011;6349;50.904;6.136;2022-09-09T02:33:52;2.28;;;1.20;;
12567;SDS011;6349;50.904;6.136;2022-09-09T02:35:57;2.72;;;1.20;;
12567;SDS011;6349;50.904;6.136;2022-09-09T02:38:04;1.08;;;0.93;;
12567;SDS011;6349;50.904;6.136;2022-09-09T02:40:09;2.93;;;1.00;;
12567;SDS011;6349;50.904;6.136;2022-09-09T02:42:12;2.25;;;1.05;;
12567;SDS011;6349;50.904;6.136;2022-09-09T02:44:15;3.28;;;1.02;;
12567;SDS011;6349;50.904;6.136;2022-09-09T02:46:23;3.45;;;1.17;;
12567;SDS011;6349;50.904;6.136;2022-09-09T02:48:52;2.22;;;0.88;;
12567;SDS011;6349;50.904;6.136;2022-09-09T02:51:10;4.07;;;1.50;;
12567;SDS011;6349;50.904;6.136;2022-09-09T02:53:20;2.30;;;1.10;;
12567;SDS011;6349;50.904;6.136;2022-09-09T02:57:48;5.18;;;1.05;;
12567;SDS011;6349;50.904;6.136;2022-09-09T02:59:50;4.65;;;1.30;;
12567;SDS011;6349;50.904;6.136;2022-09-09T03:01:52;2.37;;;1.17;;
12567;SDS011;6349;50.904;6.136;2022-09-09T03:03:53;2.25;;;1.00;;
12567;SDS011;6349;50.904;6.136;2022-09-09T03:05:55;2.55;;;1.30;;
12567;SDS011;6349;50.904;6.136;2022-09-09T03:07:57;2.17;;;1.15;;
12567;SDS011;6349;50.904;6.136;2022-09-09T03:09:57;2.13;;;1.30;;
12567;SDS011;6349;50.904;6.136;2022-09-09T03:11:58;2.55;;;1.30;;
12567;SDS011;6349;50.904;6.136;2022-09-09T03:14:00;3.97;;;1.55;;
12567;SDS011;6349;50.904;6.136;2022-09-09T03:16:01;5.20;;;1.42;;
12567;SDS011;6349;50.904;6.136;2022-09-09T03:18:03;4.15;;;1.20;;
12567;SDS011;6349;50.904;6.136;2022-09-09T03:20:04;3.20;;;1.30;;
12567;SDS011;6349;50.904;6.136;2022-09-09T03:22:05;1.67;;;1.00;;
12567;SDS011;6349;50.904;6.136;2022-09-09T03:24:06;3.00;;;1.15;;
12567;SDS011;6349;50.904;6.136;2022-09-09T03:26:07;3.47;;;1.40;;
12567;SDS011;6349;50.904;6.136;2022-09-09T03:28:08;3.27;;;1.33;;
12567;SDS011;6349;50.904;6.136;2022-09-09T03:30:08;4.35;;;1.48;;
12567;SDS011;6349;50.904;6.136;2022-09-09T03:32:10;2.83;;;1.27;;
12567;SDS011;6349;50.904;6.136;2022-09-09T03:34:10;2.78;;;1.20;;
12567;SDS011;6349;50.904;6.136;2022-09-09T03:36:11;1.80;;;1.02;;
12567;SDS011;6349;50.904;6.136;2022-09-09T03:38:12;4.03;;;1.58;;
12567;SDS011;6349;50.904;6.136;2022-09-09T03:40:12;3.17;;;1.50;;
12567;SDS011;6349;50.904;6.136;2022-09-09T03:42:14;2.38;;;1.05;;
12567;SDS011;6349;50.904;6.136;2022-09-09T03:44:18;3.60;;;1.40;;
12567;SDS011;6349;50.904;6.136;2022-09-09T03:46:20;3.17;;;1.35;;
12567;SDS011;6349;50.904;6.136;2022-09-09T03:48:22;2.25;;;1.20;;
12567;SDS011;6349;50.904;6.136;2022-09-09T03:50:24;2.45;;;1.27;;
12567;SDS011;6349;50.904;6.136;2022-09-09T03:52:24;2.38;;;1.30;;
12567;SDS011;6349;50.904;6.136;2022-09-09T03:54:26;4.50;;;1.38;;
12567;SDS011;6349;50.904;6.136;2022-09-09T03:56:27;2.65;;;1.20;;
12567;SDS011;6349;50.904;6.136;2022-09-09T03:58:27;3.90;;;1.40;;
12567;SDS011;6349;50.904;6.136;2022-09-09T04:00:28;5.63;;;1.60;;
12567;SDS011;6349;50.904;6.136;2022-09-09T04:02:30;2.90;;;1.42;;
12567;SDS011;6349;50.904;6.136;2022-09-09T04:04:31;4.15;;;1.58;;
12567;SDS011;6349;50.904;6.136;2022-09-09T04:06:32;2.20;;;1.30;;
12567;SDS011;6349;50.904;6.136;2022-09-09T04:08:33;3.15;;;1.20;;
12567;SDS011;6349;50.904;6.136;2022-09-09T04:10:35;2.58;;;1.40;;
12567;SDS011;6349;50.904;6.136;2022-09-09T04:12:37;2.90;;;1.20;;
12567;SDS011;6349;50.904;6.136;2022-09-09T04:14:38;2.78;;;1.30;;
12567;SDS011;6349;50.904;6.136;2022-09-09T04:16:38;3.40;;;1.50;;
12567;SDS011;6349;50.904;6.136;2022-09-09T04:18:44;3.28;;;1.15;;
12567;SDS011;6349;50.904;6.136;2022-09-09T04:20:46;3.20;;;1.35;;
12567;SDS011;6349;50.904;6.136;2022-09-09T04:22:48;2.22;;;1.20;;
12567;SDS011;6349;50.904;6.136;2022-09-09T04:24:48;4.25;;;1.42;;
12567;SDS011;6349;50.904;6.136;2022-09-09T04:26:49;5.18;;;1.30;;
12567;SDS011;6349;50.904;6.136;2022-09-09T04:28:50;3.22;;;1.52;;
12567;SDS011;6349;50.904;6.136;2022-09-09T04:30:51;4.35;;;1.48;;
12567;SDS011;6349;50.904;6.136;2022-09-09T04:32:52;2.83;;;1.27;;
12567;SDS011;6349;50.904;6.136;2022-09-09T04:34:53;4.65;;;1.33;;
12567;SDS011;6349;50.904;6.136;2022-09-09T04:36:53;2.65;;;1.42;;
12567;SDS011;6349;50.904;6.136;2022-09-09T04:38:54;3.47;;;1.40;;
12567;SDS011;6349;50.904;6.136;2022-09-09T04:40:55;2.72;;;1.50;;
12567;SDS011;6349;50.904;6.136;2022-09-09T04:42:57;2.70;;;1.40;;
12567;SDS011;6349;50.904;6.136;2022-09-09T04:44:59;3.47;;;1.33;;
12567;SDS011;6349;50.904;6.136;2022-09-09T04:46:59;2.42;;;1.00;;
12567;SDS011;6349;50.904;6.136;2022-09-09T04:49:00;2.58;;;1.40;;
12567;SDS011;6349;50.904;6.136;2022-09-09T04:51:02;2.55;;;1.40;;
12567;SDS011;6349;50.904;6.136;2022-09-09T04:53:05;4.50;;;1.27;;
12567;SDS011;6349;50.904;6.136;2022-09-09T04:55:06;3.38;;;1.30;;
12567;SDS011;6349;50.904;6.136;2022-09-09T04:57:07;2.97;;;1.35;;
12567;SDS011;6349;50.904;6.136;2022-09-09T04:59:10;4.00;;;1.30;;
12567;SDS011;6349;50.904;6.136;2022-09-09T05:01:13;3.50;;;1.47;;
12567;SDS011;6349;50.904;6.136;2022-09-09T05:03:18;3.53;;;1.50;;
12567;SDS011;6349;50.904;6.136;2022-09-09T05:05:19;2.97;;;1.27;;
12567;SDS011;6349;50.904;6.136;2022-09-09T05:07:20;3.00;;;1.30;;
12567;SDS011;6349;50.904;6.136;2022-09-09T05:09:20;3.65;;;1.40;;
12567;SDS011;6349;50.904;6.136;2022-09-09T05:11:22;2.97;;;1.45;;
12567;SDS011;6349;50.904;6.136;2022-09-09T05:13:26;3.03;;;1.30;;
12567;SDS011;6349;50.904;6.136;2022-09-09T05:15:27;3.50;;;1.30;;
12567;SDS011;6349;50.904;6.136;2022-09-09T05:17:28;3.60;;;1.37;;
12567;SDS011;6349;50.904;6.136;2022-09-09T05:19:29;2.63;;;1.25;;
12567;SDS011;6349;50.904;6.136;2022-09-09T05:21:30;2.97;;;1.30;;
12567;SDS011;6349;50.904;6.136;2022-09-09T05:23:31;2.60;;;1.20;;
12567;SDS011;6349;50.904;6.136;2022-09-09T05:25:34;2.50;;;1.30;;
12567;SDS011;6349;50.904;6.136;2022-09-09T05:27:34;1.73;;;1.17;;
12567;SDS011;6349;50.904;6.136;2022-09-09T05:29:35;3.60;;;1.27;;
12567;SDS011;6349;50.904;6.136;2022-09-09T05:31:36;1.65;;;1.08;;
12567;SDS011;6349;50.904;6.136;2022-09-09T05:33:36;2.40;;;1.33;;
12567;SDS011;6349;50.904;6.136;2022-09-09T05:35:40;3.00;;;1.20;;
12567;SDS011;6349;50.904;6.136;2022-09-09T05:37:41;4.63;;;1.20;;
12567;SDS011;6349;50.904;6.136;2022-09-09T05:39:42;2.67;;;1.38;;
12567;SDS011;6349;50.904;6.136;2022-09-09T05:41:42;3.10;;;1.30;;
12567;SDS011;6349;50.904;6.136;2022-09-09T05:43:44;3.10;;;1.30;;
12567;SDS011;6349;50.904;6.136;2022-09-09T05:45:47;3.13;;;1.23;;
12567;SDS011;6349;50.904;6.136;2022-09-09T05:47:51;3.53;;;1.30;;
12567;SDS011;6349;50.904;6.136;2022-09-09T05:49:53;4.88;;;1.42;;
12567;SDS011;6349;50.904;6.136;2022-09-09T05:51:55;2.87;;;1.50;;
12567;SDS011;6349;50.904;6.136;2022-09-09T05:53:55;3.50;;;1.30;;
12567;SDS011;6349;50.904;6.136;2022-09-09T05:56:00;3.37;;;1.33;;
12567;SDS011;6349;50.904;6.136;2022-09-09T05:58:03;2.47;;;1.33;;
12567;SDS011;6349;50.904;6.136;2022-09-09T06:00:04;3.47;;;1.20;;
12567;SDS011;6349;50.904;6.136;2022-09-09T06:02:05;2.05;;;1.05;;
12567;SDS011;6349;50.904;6.136;2022-09-09T06:04:06;2.40;;;1.17;;
12567;SDS011;6349;50.904;6.136;2022-09-09T06:06:09;3.73;;;1.30;;
12567;SDS011;6349;50.904;6.136;2022-09-09T06:08:12;4.37;;;1.50;;
12567;SDS011;6349;50.904;6.136;2022-09-09T06:10:12;4.03;;;1.50;;
12567;SDS011;6349;50.904;6.136;2022-09-09T06:12:13;3.55;;;1.40;;
12567;SDS011;6349;50.904;6.136;2022-09-09T06:14:16;4.60;;;1.47;;
12567;SDS011;6349;50.904;6.136;2022-09-09T06:16:19;3.30;;;1.10;;
12567;SDS011;6349;50.904;6.136;2022-09-09T06:18:23;3.80;;;1.37;;
12567;SDS011;6349;50.904;6.136;2022-09-09T06:20:24;3.17;;;1.65;;
12567;SDS011;6349;50.904;6.136;2022-09-09T06:22:25;2.17;;;1.30;;
12567;SDS011;6349;50.904;6.136;2022-09-09T06:24:25;5.07;;;1.50;;
12567;SDS011;6349;50.904;6.136;2022-09-09T06:26:30;4.22;;;1.48;;
12567;SDS011;6349;50.904;6.136;2022-09-09T06:28:33;4.30;;;1.47;;
12567;SDS011;6349;50.904;6.136;2022-09-09T06:30:34;3.47;;;1.47;;
12567;SDS011;6349;50.904;6.136;2022-09-09T06:32:34;4.50;;;1.50;;
12567;SDS011;6349;50.904;6.136;2022-09-09T06:34:37;4.20;;;1.70;;
12567;SDS011;6349;50.904;6.136;2022-09-09T06:36:38;4.87;;;1.43;;
12567;SDS011;6349;50.904;6.136;2022-09-09T06:38:39;5.10;;;1.63;;
12567;SDS011;6349;50.904;6.136;2022-09-09T06:40:40;5.33;;;1.50;;
12567;SDS011;6349;50.904;6.136;2022-09-09T06:42:41;6.20;;;1.70;;
12567;SDS011;6349;50.904;6.136;2022-09-09T06:44:41;3.13;;;1.33;;
12567;SDS011;6349;50.904;6.136;2022-09-09T06:46:42;5.90;;;1.73;;
12567;SDS011;6349;50.904;6.136;2022-09-09T06:48:43;5.83;;;1.60;;
12567;SDS011;6349;50.904;6.136;2022-09-09T06:50:44;2.65;;;1.17;;
12567;SDS011;6349;50.904;6.136;2022-09-09T06:52:46;2.10;;;1.17;;
12567;SDS011;6349;50.904;6.136;2022-09-09T06:54:47;3.40;;;1.50;;
12567;SDS011;6349;50.904;6.136;2022-09-09T06:56:48;4.83;;;1.57;;
12567;SDS011;6349;50.904;6.136;2022-09-09T06:58:50;6.88;;;1.70;;
12567;SDS011;6349;50.904;6.136;2022-09-09T07:00:52;7.13;;;1.80;;
12567;SDS011;6349;50.904;6.136;2022-09-09T07:02:52;5.15;;;1.70;;
12567;SDS011;6349;50.904;6.136;2022-09-09T07:04:53;3.60;;;1.40;;
12567;SDS011;6349;50.904;6.136;2022-09-09T07:06:54;2.90;;;1.20;;
12567;SDS011;6349;50.904;6.136;2022-09-09T07:08:55;5.15;;;1.73;;
12567;SDS011;6349;50.904;6.136;2022-09-09T07:11:01;4.22;;;1.60;;
12567;SDS011;6349;50.904;6.136;2022-09-09T07:13:05;3.25;;;1.40;;
12567;SDS011;6349;50.904;6.136;2022-09-09T07:15:06;3.65;;;1.50;;
12567;SDS011;6349;50.904;6.136;2022-09-09T07:17:06;4.93;;;1.50;;
12567;SDS011;6349;50.904;6.136;2022-09-09T07:19:07;4.32;;;1.50;;
12567;SDS011;6349;50.904;6.136;2022-09-09T07:21:09;4.15;;;1.40;;
12567;SDS011;6349;50.904;6.136;2022-09-09T07:23:12;4.07;;;1.63;;
12567;SDS011;6349;50.904;6.136;2022-09-09T07:25:12;3.88;;;1.48;;
12567;SDS011;6349;50.904;6.136;2022-09-09T07:27:14;4.47;;;1.60;;
12567;SDS011;6349;50.904;6.136;2022-09-09T07:29:14;4.78;;;1.83;;
12567;SDS011;6349;50.904;6.136;2022-09-09T07:31:16;3.17;;;1.38;;
12567;SDS011;6349;50.904;6.136;2022-09-09T07:33:18;5.60;;;1.80;;
12567;SDS011;6349;50.904;6.136;2022-09-09T07:35:20;5.00;;;1.63;;
12567;SDS011;6349;50.904;6.136;2022-09-09T07:37:20;5.28;;;1.73;;
12567;SDS011;6349;50.904;6.136;2022-09-09T07:39:21;4.60;;;1.75;;
12567;SDS011;6349;50.904;6.136;2022-09-09T07:41:27;4.43;;;1.67;;
12567;SDS011;6349;50.904;6.136;2022-09-09T07:43:30;5.45;;;2.05;;
12567;SDS011;6349;50.904;6.136;2022-09-09T07:45:31;3.88;;;1.55;;
12567;SDS011;6349;50.904;6.136;2022-09-09T07:47:34;3.75;;;1.80;;
12567;SDS011;6349;50.904;6.136;2022-09-09T07:49:35;3.08;;;1.45;;
12567;SDS011;6349;50.904;6.136;2022-09-09T07:51:38;2.10;;;1.38;;
12567;SDS011;6349;50.904;6.136;2022-09-09T07:53:41;4.75;;;1.73;;
12567;SDS011;6349;50.904;6.136;2022-09-09T07:55:41;4.13;;;1.42;;
12567;SDS011;6349;50.904;6.136;2022-09-09T07:57:42;4.53;;;1.75;;
12567;SDS011;6349;50.904;6.136;2022-09-09T07:59:43;5.03;;;1.50;;
12567;SDS011;6349;50.904;6.136;2022-09-09T08:01:45;3.45;;;1.33;;
12567;SDS011;6349;50.904;6.136;2022-09-09T08:03:54;6.63;;;1.80;;
12567;SDS011;6349;50.904;6.136;2022-09-09T08:06:09;5.05;;;1.67;;
12567;SDS011;6349;50.904;6.136;2022-09-09T08:08:10;4.07;;;1.55;;
12567;SDS011;6349;50.904;6.136;2022-09-09T08:10:11;3.95;;;1.70;;
12567;SDS011;6349;50.904;6.136;2022-09-09T08:12:11;3.83;;;1.38;;
12567;SDS011;6349;50.904;6.136;2022-09-09T08:14:13;2.95;;;1.25;;
12567;SDS011;6349;50.904;6.136;2022-09-09T08:16:16;4.53;;;1.88;;
12567;SDS011;6349;50.904;6.136;2022-09-09T08:18:19;6.00;;;1.73;;
12567;SDS011;6349;50.904;6.136;2022-09-09T08:20:19;4.22;;;1.50;;
12567;SDS011;6349;50.904;6.136;2022-09-09T08:22:20;4.20;;;1.70;;
12567;SDS011;6349;50.904;6.136;2022-09-09T08:24:21;3.03;;;1.40;;
12567;SDS011;6349;50.904;6.136;2022-09-09T08:26:24;3.00;;;1.50;;
12567;SDS011;6349;50.904;6.136;2022-09-09T08:28:26;2.75;;;1.23;;
12567;SDS011;6349;50.904;6.136;2022-09-09T08:30:27;2.78;;;1.35;;
12567;SDS011;6349;50.904;6.136;2022-09-09T08:32:27;3.40;;;1.55;;
12567;SDS011;6349;50.904;6.136;2022-09-09T08:34:29;3.45;;;1.30;;
12567;SDS011;6349;50.904;6.136;2022-09-09T08:36:32;2.55;;;1.30;;
12567;SDS011;6349;50.904;6.136;2022-09-09T08:38:34;6.43;;;1.50;;
12567;SDS011;6349;50.904;6.136;2022-09-09T08:40:36;4.60;;;1.33;;
12567;SDS011;6349;50.904;6.136;2022-09-09T08:42:41;5.22;;;1.67;;
12567;SDS011;6349;50.904;6.136;2022-09-09T08:47:18;3.15;;;1.23;;
12567;SDS011;6349;50.904;6.136;2022-09-09T08:50:44;3.53;;;1.48;;
12567;SDS011;6349;50.904;6.136;2022-09-09T08:52:17;3.22;;;1.30;;
12567;SDS011;6349;50.904;6.136;2022-09-09T08:54:21;4.22;;;1.33;;
12567;SDS011;6349;50.904;6.136;2022-09-09T08:56:24;6.63;;;1.50;;
12567;SDS011;6349;50.904;6.136;2022-09-09T08:58:29;2.15;;;1.45;;
12567;SDS011;6349;50.904;6.136;2022-09-09T09:00:37;2.80;;;1.33;;
12567;SDS011;6349;50.904;6.136;2022-09-09T09:05:28;2.95;;;1.13;;
12567;SDS011;6349;50.904;6.136;2022-09-09T09:07:41;3.15;;;1.17;;
12567;SDS011;6349;50.904;6.136;2022-09-09T09:12:27;4.53;;;1.20;;
12567;SDS011;6349;50.904;6.136;2022-09-09T09:14:34;1.80;;;0.98;;
12567;SDS011;6349;50.904;6.136;2022-09-09T09:16:41;3.05;;;1.15;;
12567;SDS011;6349;50.904;6.136;2022-09-09T09:18:57;2.75;;;1.20;;
12567;SDS011;6349;50.904;6.136;2022-09-09T09:21:10;3.00;;;1.38;;
12567;SDS011;6349;50.904;6.136;2022-09-09T09:23:19;4.35;;;1.20;;
12567;SDS011;6349;50.904;6.136;2022-09-09T09:25:25;4.18;;;1.20;;
12567;SDS011;6349;50.904;6.136;2022-09-09T09:27:31;6.78;;;1.50;;
12567;SDS011;6349;50.904;6.136;2022-09-09T09:29:53;4.13;;;1.13;;
12567;SDS011;6349;50.904;6.136;2022-09-09T09:31:58;3.38;;;1.35;;
12567;SDS011;6349;50.904;6.136;2022-09-09T09:34:02;5.30;;;1.23;;
12567;SDS011;6349;50.904;6.136;2022-09-09T09:36:04;3.20;;;1.48;;
12567;SDS011;6349;50.904;6.136;2022-09-09T09:38:12;2.53;;;1.08;;
12567;SDS011;6349;50.904;6.136;2022-09-09T09:40:18;2.45;;;1.10;;
12567;SDS011;6349;50.904;6.136;2022-09-09T09:42:20;3.70;;;1.50;;
12567;SDS011;6349;50.904;6.136;2022-09-09T09:44:24;3.03;;;1.02;;
12567;SDS011;6349;50.904;6.136;2022-09-09T09:46:29;2.47;;;1.05;;
12567;SDS011;6349;50.904;6.136;2022-09-09T09:48:29;10.43;;;1.58;;
12567;SDS011;6349;50.904;6.136;2022-09-09T09:50:30;2.75;;;1.13;;
12567;SDS011;6349;50.904;6.136;2022-09-09T09:52:33;3.80;;;1.25;;
12567;SDS011;6349;50.904;6.136;2022-09-09T09:54:39;4.28;;;1.23;;
12567;SDS011;6349;50.904;6.136;2022-09-09T09:56:42;3.78;;;1.25;;
12567;SDS011;6349;50.904;6.136;2022-09-09T10:00:55;2.55;;;1.08;;
12567;SDS011;6349;50.904;6.136;2022-09-09T10:02:56;5.88;;;1.08;;
12567;SDS011;6349;50.904;6.136;2022-09-09T10:05:01;2.38;;;1.20;;
12567;SDS011;6349;50.904;6.136;2022-09-09T10:07:13;1.77;;;0.95;;
12567;SDS011;6349;50.904;6.136;2022-09-09T10:09:28;3.35;;;1.35;;
12567;SDS011;6349;50.904;6.136;2022-09-09T10:11:52;2.88;;;1.55;;
12567;SDS011;6349;50.904;6.136;2022-09-09T10:19:16;2.22;;;0.98;;
12567;SDS011;6349;50.904;6.136;2022-09-09T10:22:12;4.53;;;1.20;;
12567;SDS011;6349;50.904;6.136;2022-09-09T10:26:50;3.75;;;1.20;;
12567;SDS011;6349;50.904;6.136;2022-09-09T10:31:37;3.38;;;1.38;;
12567;SDS011;6349;50.904;6.136;2022-09-09T10:34:05;3.95;;;1.65;;
12567;SDS011;6349;50.904;6.136;2022-09-09T10:36:31;4.43;;;1.70;;
12567;SDS011;6349;50.904;6.136;2022-09-09T10:38:47;9.63;;;2.20;;
12567;SDS011;6349;50.904;6.136;2022-09-09T10:41:11;7.55;;;1.58;;
12567;SDS011;6349;50.904;6.136;2022-09-09T10:43:43;5.53;;;1.45;;
12567;SDS011;6349;50.904;6.136;2022-09-09T10:46:39;2.42;;;1.23;;
12567;SDS011;6349;50.904;6.136;2022-09-09T10:48:42;5.30;;;1.50;;
12567;SDS011;6349;50.904;6.136;2022-09-09T10:51:42;4.30;;;1.48;;
12567;SDS011;6349;50.904;6.136;2022-09-09T10:53:51;4.88;;;1.60;;
12567;SDS011;6349;50.904;6.136;2022-09-09T10:56:08;2.63;;;1.13;;
12567;SDS011;6349;50.904;6.136;2022-09-09T10:58:18;3.20;;;1.38;;
12567;SDS011;6349;50.904;6.136;2022-09-09T11:00:31;3.15;;;1.33;;
12567;SDS011;6349;50.904;6.136;2022-09-09T11:02:47;4.90;;;1.40;;
12567;SDS011;6349;50.904;6.136;2022-09-09T11:05:04;4.00;;;1.42;;
12567;SDS011;6349;50.904;6.136;2022-09-09T11:07:28;2.50;;;1.30;;
12567;SDS011;6349;50.904;6.136;2022-09-09T11:09:40;3.47;;;1.30;;
12567;SDS011;6349;50.904;6.136;2022-09-09T11:11:56;4.93;;;1.40;;
12567;SDS011;6349;50.904;6.136;2022-09-09T11:14:05;2.47;;;1.20;;
12567;SDS011;6349;50.904;6.136;2022-09-09T11:16:30;3.83;;;1.30;;
12567;SDS011;6349;50.904;6.136;2022-09-09T11:18:40;2.97;;;1.15;;
12567;SDS011;6349;50.904;6.136;2022-09-09T11:20:43;5.00;;;1.10;;
12567;SDS011;6349;50.904;6.136;2022-09-09T11:22:49;4.22;;;1.40;;
12567;SDS011;6349;50.904;6.136;2022-09-09T11:25:13;3.47;;;1.10;;
12567;SDS011;6349;50.904;6.136;2022-09-09T11:27:21;3.15;;;1.05;;
12567;SDS011;6349;50.904;6.136;2022-09-09T11:39:05;4.30;;;1.20;;
12567;SDS011;6349;50.904;6.136;2022-09-09T11:41:17;3.17;;;1.20;;
12567;SDS011;6349;50.904;6.136;2022-09-09T11:43:23;5.05;;;1.13;;
12567;SDS011;6349;50.904;6.136;2022-09-09T11:45:27;2.50;;;1.27;;
12567;SDS011;6349;50.904;6.136;2022-09-09T11:47:30;3.38;;;0.95;;
12567;SDS011;6349;50.904;6.136;2022-09-09T11:51:48;2.78;;;1.00;;
12567;SDS011;6349;50.904;6.136;2022-09-09T11:53:51;1.67;;;0.80;;
12567;SDS011;6349;50.904;6.136;2022-09-09T11:56:06;3.53;;;1.13;;
12567;SDS011;6349;50.904;6.136;2022-09-09T12:00:33;1.33;;;0.88;;
12567;SDS011;6349;50.904;6.136;2022-09-09T12:02:37;2.50;;;1.30;;
12567;SDS011;6349;50.904;6.136;2022-09-09T12:04:54;2.78;;;1.10;;
12567;SDS011;6349;50.904;6.136;2022-09-09T12:12:07;2.03;;;1.00;;
12567;SDS011;6349;50.904;6.136;2022-09-09T12:16:55;2.17;;;1.08;;
12567;SDS011;6349;50.904;6.136;2022-09-09T12:19:28;3.13;;;1.10;;
12567;SDS011;6349;50.904;6.136;2022-09-09T12:21:26;3.65;;;1.20;;
12567;SDS011;6349;50.904;6.136;2022-09-09T12:23:54;1.77;;;0.95;;
12567;SDS011;6349;50.904;6.136;2022-09-09T12:26:03;3.00;;;1.02;;
12567;SDS011;6349;50.904;6.136;2022-09-09T12:30:58;1.90;;;1.10;;
12567;SDS011;6349;50.904;6.136;2022-09-09T12:33:22;3.17;;;1.20;;
12567;SDS011;6349;50.904;6.136;2022-09-09T12:35:26;2.83;;;1.13;;
12567;SDS011;6349;50.904;6.136;2022-09-09T12:39:45;3.90;;;1.20;;
12567;SDS011;6349;50.904;6.136;2022-09-09T12:41:52;3.85;;;1.05;;
12567;SDS011;6349;50.904;6.136;2022-09-09T12:44:04;3.80;;;1.30;;
12567;SDS011;6349;50.904;6.136;2022-09-09T12:46:07;2.60;;;1.10;;
12567;SDS011;6349;50.904;6.136;2022-09-09T12:48:14;3.13;;;1.38;;
12567;SDS011;6349;50.904;6.136;2022-09-09T12:50:21;3.67;;;1.33;;
12567;SDS011;6349;50.904;6.136;2022-09-09T12:52:29;5.97;;;1.50;;
12567;SDS011;6349;50.904;6.136;2022-09-09T12:54:34;3.03;;;1.33;;
12567;SDS011;6349;50.904;6.136;2022-09-09T12:56:36;2.83;;;1.48;;
12567;SDS011;6349;50.904;6.136;2022-09-09T12:58:37;3.45;;;1.38;;
12567;SDS011;6349;50.904;6.136;2022-09-09T13:00:48;4.93;;;1.83;;
12567;SDS011;6349;50.904;6.136;2022-09-09T13:02:54;3.08;;;1.38;;
12567;SDS011;6349;50.904;6.136;2022-09-09T13:05:05;2.03;;;1.40;;
12567;SDS011;6349;50.904;6.136;2022-09-09T13:07:13;3.15;;;1.40;;
12567;SDS011;6349;50.904;6.136;2022-09-09T13:09:16;3.58;;;1.38;;
12567;SDS011;6349;50.904;6.136;2022-09-09T13:11:17;2.40;;;1.30;;
12567;SDS011;6349;50.904;6.136;2022-09-09T13:13:26;2.65;;;1.10;;
12567;SDS011;6349;50.904;6.136;2022-09-09T13:15:31;2.15;;;1.30;;
12567;SDS011;6349;50.904;6.136;2022-09-09T13:17:32;3.45;;;1.48;;
12567;SDS011;6349;50.904;6.136;2022-09-09T13:19:36;1.98;;;1.27;;
12567;SDS011;6349;50.904;6.136;2022-09-09T13:21:39;4.68;;;1.40;;
12567;SDS011;6349;50.904;6.136;2022-09-09T13:23:40;3.58;;;1.40;;
12567;SDS011;6349;50.904;6.136;2022-09-09T13:25:41;4.85;;;1.30;;
12567;SDS011;6349;50.904;6.136;2022-09-09T13:27:55;3.97;;;1.60;;
12567;SDS011;6349;50.904;6.136;2022-09-09T13:29:57;3.80;;;1.33;;
12567;SDS011;6349;50.904;6.136;2022-09-09T13:32:06;3.28;;;1.42;;
12567;SDS011;6349;50.904;6.136;2022-09-09T13:34:27;3.95;;;1.38;;
12567;SDS011;6349;50.904;6.136;2022-09-09T13:36:30;2.90;;;1.38;;
12567;SDS011;6349;50.904;6.136;2022-09-09T13:38:35;2.50;;;1.40;;
12567;SDS011;6349;50.904;6.136;2022-09-09T13:40:38;3.25;;;1.45;;
12567;SDS011;6349;50.904;6.136;2022-09-09T13:42:39;1.65;;;1.10;;
12567;SDS011;6349;50.904;6.136;2022-09-09T13:44:42;3.65;;;1.48;;
12567;SDS011;6349;50.904;6.136;2022-09-09T13:46:46;3.78;;;1.27;;
12567;SDS011;6349;50.904;6.136;2022-09-09T13:48:55;2.20;;;1.00;;
12567;SDS011;6349;50.904;6.136;2022-09-09T13:50:59;3.38;;;1.35;;
12567;SDS011;6349;50.904;6.136;2022-09-09T13:53:01;2.50;;;1.20;;
12567;SDS011;6349;50.904;6.136;2022-09-09T13:55:03;3.80;;;1.25;;
12567;SDS011;6349;50.904;6.136;2022-09-09T13:57:04;1.67;;;1.10;;
12567;SDS011;6349;50.904;6.136;2022-09-09T13:59:05;3.30;;;1.30;;
12567;SDS011;6349;50.904;6.136;2022-09-09T14:01:09;2.55;;;1.10;;
12567;SDS011;6349;50.904;6.136;2022-09-09T14:03:10;4.38;;;1.33;;